sensor_id;sensor_type;location;lat;lon;timestamp;P1;durP1;ratioP1;P2;durP2;ratioP2
80131;SDS011;69442;51.442;10.564;2023-09-30T00:02:06;3.53;;;1.27;;
80131;SDS011;69442;51.442;10.564;2023-09-30T00:04:31;3.95;;;1.52;;
80131;SDS011;69442;51.442;10.564;2023-09-30T00:06:57;4.78;;;1.48;;
80131;SDS011;69442;51.442;10.564;2023-09-30T00:09:22;2.80;;;1.30;;
80131;SDS011;69442;51.442;10.564;2023-09-30T00:11:48;4.45;;;1.30;;
80131;SDS011;69442;51.442;10.564;2023-09-30T00:14:13;3.45;;;1.30;;
80131;SDS011;69442;51.442;10.564;2023-09-30T00:16:39;3.17;;;1.05;;
80131;SDS011;69442;51.442;10.564;2023-09-30T00:19:04;1.98;;;1.23;;
80131;SDS011;69442;51.442;10.564;2023-09-30T00:21:30;3.78;;;1.13;;
80131;SDS011;69442;51.442;10.564;2023-09-30T00:23:55;7.32;;;1.45;;
80131;SDS011;69442;51.442;10.564;2023-09-30T00:26:21;2.78;;;1.30;;
80131;SDS011;69442;51.442;10.564;2023-09-30T00:28:47;3.95;;;1.52;;
80131;SDS011;69442;51.442;10.564;2023-09-30T00:31:12;2.33;;;1.20;;
80131;SDS011;69442;51.442;10.564;2023-09-30T00:33:38;4.18;;;1.40;;
80131;SDS011;69442;51.442;10.564;2023-09-30T00:36:07;3.08;;;1.63;;
80131;SDS011;69442;51.442;10.564;2023-09-30T00:38:37;2.53;;;1.10;;
80131;SDS011;69442;51.442;10.564;2023-09-30T00:41:03;2.03;;;1.08;;
80131;SDS011;69442;51.442;10.564;2023-09-30T00:43:28;2.95;;;1.40;;
80131;SDS011;69442;51.442;10.564;2023-09-30T00:45:59;2.22;;;1.15;;
80131;SDS011;69442;51.442;10.564;2023-09-30T00:48:31;4.47;;;1.33;;
80131;SDS011;69442;51.442;10.564;2023-09-30T00:50:57;3.47;;;1.25;;
80131;SDS011;69442;51.442;10.564;2023-09-30T00:53:23;3.85;;;0.95;;
80131;SDS011;69442;51.442;10.564;2023-09-30T00:55:48;5.85;;;1.80;;
80131;SDS011;69442;51.442;10.564;2023-09-30T00:58:14;1.80;;;1.10;;
80131;SDS011;69442;51.442;10.564;2023-09-30T01:00:41;3.90;;;1.48;;
80131;SDS011;69442;51.442;10.564;2023-09-30T01:03:07;3.42;;;1.23;;
80131;SDS011;69442;51.442;10.564;2023-09-30T01:05:32;5.03;;;1.35;;
80131;SDS011;69442;51.442;10.564;2023-09-30T01:07:58;4.93;;;1.63;;
80131;SDS011;69442;51.442;10.564;2023-09-30T01:10:27;5.05;;;1.38;;
80131;SDS011;69442;51.442;10.564;2023-09-30T01:12:53;4.70;;;1.30;;
80131;SDS011;69442;51.442;10.564;2023-09-30T01:15:18;3.10;;;1.50;;
80131;SDS011;69442;51.442;10.564;2023-09-30T01:17:44;4.22;;;1.67;;
80131;SDS011;69442;51.442;10.564;2023-09-30T01:20:09;3.33;;;1.25;;
80131;SDS011;69442;51.442;10.564;2023-09-30T01:22:41;4.53;;;1.67;;
80131;SDS011;69442;51.442;10.564;2023-09-30T01:25:07;2.53;;;1.10;;
80131;SDS011;69442;51.442;10.564;2023-09-30T01:27:34;5.25;;;1.40;;
80131;SDS011;69442;51.442;10.564;2023-09-30T01:30:00;6.65;;;1.92;;
80131;SDS011;69442;51.442;10.564;2023-09-30T01:32:25;3.55;;;1.38;;
80131;SDS011;69442;51.442;10.564;2023-09-30T01:34:51;3.75;;;1.60;;
80131;SDS011;69442;51.442;10.564;2023-09-30T01:37:17;3.22;;;1.35;;
80131;SDS011;69442;51.442;10.564;2023-09-30T01:39:42;2.85;;;1.55;;
80131;SDS011;69442;51.442;10.564;2023-09-30T01:42:10;4.63;;;1.90;;
80131;SDS011;69442;51.442;10.564;2023-09-30T01:44:35;2.53;;;1.08;;
80131;SDS011;69442;51.442;10.564;2023-09-30T01:47:01;6.10;;;1.95;;
80131;SDS011;69442;51.442;10.564;2023-09-30T01:49:26;2.92;;;1.50;;
80131;SDS011;69442;51.442;10.564;2023-09-30T01:51:51;3.75;;;1.30;;
80131;SDS011;69442;51.442;10.564;2023-09-30T01:54:18;2.65;;;1.73;;
80131;SDS011;69442;51.442;10.564;2023-09-30T01:56:43;4.75;;;1.63;;
80131;SDS011;69442;51.442;10.564;2023-09-30T01:59:08;6.35;;;2.05;;
80131;SDS011;69442;51.442;10.564;2023-09-30T02:01:34;6.97;;;1.65;;
80131;SDS011;69442;51.442;10.564;2023-09-30T02:03:59;2.78;;;1.77;;
80131;SDS011;69442;51.442;10.564;2023-09-30T02:06:24;3.80;;;1.50;;
80131;SDS011;69442;51.442;10.564;2023-09-30T02:08:50;9.10;;;2.03;;
80131;SDS011;69442;51.442;10.564;2023-09-30T02:11:16;3.28;;;1.20;;
80131;SDS011;69442;51.442;10.564;2023-09-30T02:13:41;2.78;;;1.17;;
80131;SDS011;69442;51.442;10.564;2023-09-30T02:16:12;5.13;;;1.40;;
80131;SDS011;69442;51.442;10.564;2023-09-30T02:18:42;5.53;;;1.98;;
80131;SDS011;69442;51.442;10.564;2023-09-30T02:21:09;6.80;;;1.80;;
80131;SDS011;69442;51.442;10.564;2023-09-30T02:23:35;4.25;;;1.50;;
80131;SDS011;69442;51.442;10.564;2023-09-30T02:26:01;3.53;;;1.73;;
80131;SDS011;69442;51.442;10.564;2023-09-30T02:28:28;3.75;;;1.55;;
80131;SDS011;69442;51.442;10.564;2023-09-30T02:30:54;3.67;;;1.55;;
80131;SDS011;69442;51.442;10.564;2023-09-30T02:33:19;7.80;;;1.65;;
80131;SDS011;69442;51.442;10.564;2023-09-30T02:35:45;2.70;;;1.40;;
80131;SDS011;69442;51.442;10.564;2023-09-30T02:38:11;2.90;;;1.10;;
80131;SDS011;69442;51.442;10.564;2023-09-30T02:40:36;4.80;;;1.90;;
80131;SDS011;69442;51.442;10.564;2023-09-30T02:43:03;7.32;;;2.33;;
80131;SDS011;69442;51.442;10.564;2023-09-30T02:45:29;6.28;;;1.85;;
80131;SDS011;69442;51.442;10.564;2023-09-30T02:47:54;5.20;;;1.48;;
80131;SDS011;69442;51.442;10.564;2023-09-30T02:50:20;4.22;;;1.63;;
80131;SDS011;69442;51.442;10.564;2023-09-30T02:52:46;3.15;;;1.52;;
80131;SDS011;69442;51.442;10.564;2023-09-30T02:55:12;5.22;;;1.60;;
80131;SDS011;69442;51.442;10.564;2023-09-30T02:57:38;6.43;;;1.63;;
80131;SDS011;69442;51.442;10.564;2023-09-30T03:00:04;3.97;;;1.63;;
80131;SDS011;69442;51.442;10.564;2023-09-30T03:02:40;4.32;;;1.30;;
80131;SDS011;69442;51.442;10.564;2023-09-30T03:05:05;3.67;;;1.70;;
80131;SDS011;69442;51.442;10.564;2023-09-30T03:07:32;5.82;;;1.60;;
80131;SDS011;69442;51.442;10.564;2023-09-30T03:09:58;5.18;;;1.67;;
80131;SDS011;69442;51.442;10.564;2023-09-30T03:12:25;3.30;;;1.50;;
80131;SDS011;69442;51.442;10.564;2023-09-30T03:14:51;4.07;;;1.70;;
80131;SDS011;69442;51.442;10.564;2023-09-30T03:17:16;6.50;;;2.28;;
80131;SDS011;69442;51.442;10.564;2023-09-30T03:19:42;3.53;;;1.50;;
80131;SDS011;69442;51.442;10.564;2023-09-30T03:22:08;7.13;;;2.08;;
80131;SDS011;69442;51.442;10.564;2023-09-30T03:24:36;3.00;;;1.42;;
80131;SDS011;69442;51.442;10.564;2023-09-30T03:27:04;4.07;;;1.80;;
80131;SDS011;69442;51.442;10.564;2023-09-30T03:29:30;3.42;;;1.40;;
80131;SDS011;69442;51.442;10.564;2023-09-30T03:31:56;2.92;;;1.10;;
80131;SDS011;69442;51.442;10.564;2023-09-30T03:34:21;2.40;;;1.30;;
80131;SDS011;69442;51.442;10.564;2023-09-30T03:36:46;6.70;;;1.75;;
80131;SDS011;69442;51.442;10.564;2023-09-30T03:39:12;4.22;;;2.08;;
80131;SDS011;69442;51.442;10.564;2023-09-30T03:41:40;4.15;;;1.63;;
80131;SDS011;69442;51.442;10.564;2023-09-30T03:44:05;4.40;;;1.70;;
80131;SDS011;69442;51.442;10.564;2023-09-30T03:46:31;3.47;;;1.48;;
80131;SDS011;69442;51.442;10.564;2023-09-30T03:48:56;3.15;;;1.25;;
80131;SDS011;69442;51.442;10.564;2023-09-30T03:51:22;2.35;;;1.20;;
80131;SDS011;69442;51.442;10.564;2023-09-30T03:53:50;2.80;;;1.13;;
80131;SDS011;69442;51.442;10.564;2023-09-30T03:56:16;5.03;;;1.58;;
80131;SDS011;69442;51.442;10.564;2023-09-30T03:58:43;4.55;;;1.55;;
80131;SDS011;69442;51.442;10.564;2023-09-30T04:01:10;4.18;;;1.50;;
80131;SDS011;69442;51.442;10.564;2023-09-30T04:03:39;5.25;;;1.42;;
80131;SDS011;69442;51.442;10.564;2023-09-30T04:06:04;5.30;;;1.80;;
80131;SDS011;69442;51.442;10.564;2023-09-30T04:08:31;4.53;;;1.77;;
80131;SDS011;69442;51.442;10.564;2023-09-30T04:10:58;4.82;;;1.50;;
80131;SDS011;69442;51.442;10.564;2023-09-30T04:13:24;3.85;;;1.20;;
80131;SDS011;69442;51.442;10.564;2023-09-30T04:15:50;3.97;;;1.20;;
80131;SDS011;69442;51.442;10.564;2023-09-30T04:18:16;2.88;;;1.38;;
80131;SDS011;69442;51.442;10.564;2023-09-30T04:20:41;3.72;;;1.38;;
80131;SDS011;69442;51.442;10.564;2023-09-30T04:23:07;6.57;;;1.50;;
80131;SDS011;69442;51.442;10.564;2023-09-30T04:25:34;3.35;;;1.30;;
80131;SDS011;69442;51.442;10.564;2023-09-30T04:28:00;3.15;;;1.17;;
80131;SDS011;69442;51.442;10.564;2023-09-30T04:30:25;4.50;;;1.50;;
80131;SDS011;69442;51.442;10.564;2023-09-30T04:32:52;2.55;;;1.35;;
80131;SDS011;69442;51.442;10.564;2023-09-30T04:35:18;6.43;;;1.80;;
80131;SDS011;69442;51.442;10.564;2023-09-30T04:37:43;8.15;;;2.58;;
80131;SDS011;69442;51.442;10.564;2023-09-30T04:40:09;5.38;;;1.85;;
80131;SDS011;69442;51.442;10.564;2023-09-30T04:42:41;2.60;;;1.27;;
80131;SDS011;69442;51.442;10.564;2023-09-30T04:45:09;7.13;;;2.33;;
80131;SDS011;69442;51.442;10.564;2023-09-30T04:47:35;3.63;;;1.33;;
80131;SDS011;69442;51.442;10.564;2023-09-30T04:50:02;2.78;;;1.30;;
80131;SDS011;69442;51.442;10.564;2023-09-30T04:52:29;2.55;;;1.15;;
80131;SDS011;69442;51.442;10.564;2023-09-30T04:54:56;5.15;;;1.60;;
80131;SDS011;69442;51.442;10.564;2023-09-30T04:57:21;5.35;;;1.83;;
80131;SDS011;69442;51.442;10.564;2023-09-30T04:59:47;2.67;;;1.52;;
80131;SDS011;69442;51.442;10.564;2023-09-30T05:02:12;2.90;;;1.63;;
80131;SDS011;69442;51.442;10.564;2023-09-30T05:04:40;5.72;;;2.40;;
80131;SDS011;69442;51.442;10.564;2023-09-30T05:07:07;5.30;;;1.67;;
80131;SDS011;69442;51.442;10.564;2023-09-30T05:09:32;2.97;;;1.63;;
80131;SDS011;69442;51.442;10.564;2023-09-30T05:11:58;4.43;;;1.90;;
80131;SDS011;69442;51.442;10.564;2023-09-30T05:14:23;6.45;;;1.77;;
80131;SDS011;69442;51.442;10.564;2023-09-30T05:16:49;1.75;;;1.15;;
80131;SDS011;69442;51.442;10.564;2023-09-30T05:19:14;6.70;;;2.50;;
80131;SDS011;69442;51.442;10.564;2023-09-30T05:21:39;5.00;;;1.50;;
80131;SDS011;69442;51.442;10.564;2023-09-30T14:40:35;3.47;;;1.02;;
80131;SDS011;69442;51.442;10.564;2023-09-30T14:43:03;3.67;;;0.80;;
80131;SDS011;69442;51.442;10.564;2023-09-30T14:45:30;2.60;;;0.80;;
80131;SDS011;69442;51.442;10.564;2023-09-30T14:47:56;1.70;;;0.90;;
80131;SDS011;69442;51.442;10.564;2023-09-30T14:50:21;5.07;;;1.20;;
80131;SDS011;69442;51.442;10.564;2023-09-30T14:52:47;3.33;;;0.93;;
80131;SDS011;69442;51.442;10.564;2023-09-30T14:55:12;2.55;;;0.80;;
80131;SDS011;69442;51.442;10.564;2023-09-30T14:57:38;3.83;;;1.00;;
80131;SDS011;69442;51.442;10.564;2023-09-30T15:00:03;3.58;;;1.30;;
80131;SDS011;69442;51.442;10.564;2023-09-30T15:02:31;3.15;;;1.23;;
80131;SDS011;69442;51.442;10.564;2023-09-30T15:04:56;3.20;;;1.00;;
80131;SDS011;69442;51.442;10.564;2023-09-30T15:07:21;3.10;;;0.70;;
80131;SDS011;69442;51.442;10.564;2023-09-30T15:09:47;3.00;;;1.30;;
80131;SDS011;69442;51.442;10.564;2023-09-30T15:12:12;2.30;;;1.10;;
80131;SDS011;69442;51.442;10.564;2023-09-30T15:14:38;3.38;;;0.88;;
80131;SDS011;69442;51.442;10.564;2023-09-30T15:17:03;3.78;;;0.80;;
80131;SDS011;69442;51.442;10.564;2023-09-30T15:19:29;3.08;;;1.00;;
80131;SDS011;69442;51.442;10.564;2023-09-30T15:21:54;2.38;;;1.10;;
80131;SDS011;69442;51.442;10.564;2023-09-30T15:24:19;1.85;;;0.80;;
80131;SDS011;69442;51.442;10.564;2023-09-30T15:26:45;2.45;;;0.98;;
80131;SDS011;69442;51.442;10.564;2023-09-30T15:29:10;2.38;;;1.05;;
80131;SDS011;69442;51.442;10.564;2023-09-30T15:31:36;2.10;;;0.90;;
80131;SDS011;69442;51.442;10.564;2023-09-30T15:34:01;2.83;;;1.10;;
80131;SDS011;69442;51.442;10.564;2023-09-30T15:36:27;2.58;;;1.00;;
80131;SDS011;69442;51.442;10.564;2023-09-30T15:38:53;2.72;;;1.42;;
80131;SDS011;69442;51.442;10.564;2023-09-30T15:41:24;3.20;;;0.98;;
80131;SDS011;69442;51.442;10.564;2023-09-30T15:43:50;4.25;;;1.58;;
80131;SDS011;69442;51.442;10.564;2023-09-30T15:46:16;2.30;;;1.00;;
80131;SDS011;69442;51.442;10.564;2023-09-30T15:48:43;2.90;;;0.98;;
80131;SDS011;69442;51.442;10.564;2023-09-30T15:51:09;4.80;;;1.10;;
80131;SDS011;69442;51.442;10.564;2023-09-30T15:53:35;5.25;;;1.02;;
80131;SDS011;69442;51.442;10.564;2023-09-30T15:56:04;2.55;;;0.80;;
80131;SDS011;69442;51.442;10.564;2023-09-30T15:58:30;3.08;;;0.80;;
80131;SDS011;69442;51.442;10.564;2023-09-30T16:00:55;2.42;;;1.10;;
80131;SDS011;69442;51.442;10.564;2023-09-30T16:03:21;1.70;;;0.98;;
80131;SDS011;69442;51.442;10.564;2023-09-30T16:05:47;1.77;;;0.73;;
80131;SDS011;69442;51.442;10.564;2023-09-30T16:08:13;1.85;;;0.80;;
80131;SDS011;69442;51.442;10.564;2023-09-30T16:10:38;2.45;;;0.82;;
80131;SDS011;69442;51.442;10.564;2023-09-30T16:13:04;4.95;;;1.10;;
80131;SDS011;69442;51.442;10.564;2023-09-30T16:15:40;2.50;;;1.00;;
80131;SDS011;69442;51.442;10.564;2023-09-30T16:18:07;2.72;;;1.00;;
80131;SDS011;69442;51.442;10.564;2023-09-30T16:20:33;4.07;;;1.15;;
80131;SDS011;69442;51.442;10.564;2023-09-30T16:22:58;3.38;;;0.77;;
80131;SDS011;69442;51.442;10.564;2023-09-30T16:25:24;2.05;;;0.90;;
80131;SDS011;69442;51.442;10.564;2023-09-30T16:27:50;2.30;;;0.95;;
80131;SDS011;69442;51.442;10.564;2023-09-30T16:30:17;3.63;;;1.00;;
80131;SDS011;69442;51.442;10.564;2023-09-30T16:32:43;3.15;;;1.00;;
80131;SDS011;69442;51.442;10.564;2023-09-30T16:35:09;3.97;;;1.20;;
80131;SDS011;69442;51.442;10.564;2023-09-30T16:37:34;3.80;;;1.10;;
80131;SDS011;69442;51.442;10.564;2023-09-30T16:40:00;2.72;;;1.08;;
80131;SDS011;69442;51.442;10.564;2023-09-30T16:42:26;3.63;;;0.98;;
80131;SDS011;69442;51.442;10.564;2023-09-30T16:44:54;2.35;;;0.70;;
80131;SDS011;69442;51.442;10.564;2023-09-30T16:47:19;0.88;;;0.50;;
80131;SDS011;69442;51.442;10.564;2023-09-30T16:49:44;1.35;;;0.70;;
80131;SDS011;69442;51.442;10.564;2023-09-30T16:52:12;1.67;;;0.90;;
80131;SDS011;69442;51.442;10.564;2023-09-30T16:54:38;1.10;;;0.80;;
80131;SDS011;69442;51.442;10.564;2023-09-30T16:57:03;3.25;;;1.00;;
80131;SDS011;69442;51.442;10.564;2023-09-30T16:59:29;2.45;;;1.10;;
80131;SDS011;69442;51.442;10.564;2023-09-30T17:01:55;2.35;;;0.73;;
80131;SDS011;69442;51.442;10.564;2023-09-30T17:04:21;1.95;;;1.17;;
80131;SDS011;69442;51.442;10.564;2023-09-30T17:06:46;2.03;;;1.00;;
80131;SDS011;69442;51.442;10.564;2023-09-30T17:09:12;1.98;;;0.70;;
80131;SDS011;69442;51.442;10.564;2023-09-30T17:11:37;2.15;;;1.00;;
80131;SDS011;69442;51.442;10.564;2023-09-30T17:14:03;1.77;;;1.17;;
80131;SDS011;69442;51.442;10.564;2023-09-30T17:16:29;2.25;;;0.80;;
80131;SDS011;69442;51.442;10.564;2023-09-30T17:18:55;2.40;;;0.90;;
80131;SDS011;69442;51.442;10.564;2023-09-30T17:21:20;2.70;;;0.85;;
80131;SDS011;69442;51.442;10.564;2023-09-30T17:23:46;2.60;;;1.00;;
80131;SDS011;69442;51.442;10.564;2023-09-30T17:26:11;4.07;;;1.25;;
80131;SDS011;69442;51.442;10.564;2023-09-30T17:28:36;2.83;;;1.15;;
80131;SDS011;69442;51.442;10.564;2023-09-30T17:31:05;3.03;;;1.00;;
80131;SDS011;69442;51.442;10.564;2023-09-30T17:33:32;2.28;;;0.70;;
80131;SDS011;69442;51.442;10.564;2023-09-30T17:36:02;3.28;;;0.80;;
80131;SDS011;69442;51.442;10.564;2023-09-30T17:38:29;1.13;;;0.80;;
80131;SDS011;69442;51.442;10.564;2023-09-30T17:43:27;1.50;;;1.05;;
80131;SDS011;69442;51.442;10.564;2023-09-30T17:45:55;4.25;;;2.55;;
80131;SDS011;69442;51.442;10.564;2023-09-30T17:48:21;7.18;;;3.15;;
80131;SDS011;69442;51.442;10.564;2023-09-30T17:50:49;3.78;;;2.90;;
80131;SDS011;69442;51.442;10.564;2023-09-30T17:53:15;7.25;;;4.25;;
80131;SDS011;69442;51.442;10.564;2023-09-30T17:55:40;7.15;;;3.55;;
80131;SDS011;69442;51.442;10.564;2023-09-30T17:58:06;3.35;;;1.63;;
80131;SDS011;69442;51.442;10.564;2023-09-30T18:00:32;3.67;;;1.25;;
80131;SDS011;69442;51.442;10.564;2023-09-30T18:02:58;2.33;;;1.10;;
80131;SDS011;69442;51.442;10.564;2023-09-30T18:05:24;4.53;;;1.23;;
80131;SDS011;69442;51.442;10.564;2023-09-30T18:07:51;5.65;;;3.13;;
80131;SDS011;69442;51.442;10.564;2023-09-30T18:10:17;9.43;;;4.90;;
80131;SDS011;69442;51.442;10.564;2023-09-30T18:12:45;6.40;;;4.20;;
80131;SDS011;69442;51.442;10.564;2023-09-30T18:15:11;4.13;;;2.20;;
80131;SDS011;69442;51.442;10.564;2023-09-30T18:17:37;4.03;;;2.40;;
80131;SDS011;69442;51.442;10.564;2023-09-30T18:20:03;4.43;;;2.45;;
80131;SDS011;69442;51.442;10.564;2023-09-30T18:22:30;8.80;;;6.40;;
80131;SDS011;69442;51.442;10.564;2023-09-30T18:24:59;4.75;;;3.30;;
80131;SDS011;69442;51.442;10.564;2023-09-30T18:27:25;4.22;;;2.42;;
80131;SDS011;69442;51.442;10.564;2023-09-30T18:29:50;3.13;;;2.05;;
80131;SDS011;69442;51.442;10.564;2023-09-30T18:32:16;3.33;;;1.70;;
80131;SDS011;69442;51.442;10.564;2023-09-30T18:34:41;3.97;;;1.70;;
80131;SDS011;69442;51.442;10.564;2023-09-30T18:37:06;6.15;;;2.30;;
80131;SDS011;69442;51.442;10.564;2023-09-30T18:39:32;2.65;;;1.60;;
80131;SDS011;69442;51.442;10.564;2023-09-30T18:41:57;2.42;;;1.42;;
80131;SDS011;69442;51.442;10.564;2023-09-30T18:44:22;3.97;;;2.20;;
80131;SDS011;69442;51.442;10.564;2023-09-30T18:46:48;3.65;;;2.28;;
80131;SDS011;69442;51.442;10.564;2023-09-30T18:49:16;5.13;;;2.22;;
80131;SDS011;69442;51.442;10.564;2023-09-30T18:51:41;2.50;;;1.90;;
80131;SDS011;69442;51.442;10.564;2023-09-30T18:54:07;6.63;;;2.17;;
80131;SDS011;69442;51.442;10.564;2023-09-30T18:56:33;5.85;;;2.83;;
80131;SDS011;69442;51.442;10.564;2023-09-30T18:58:59;13.93;;;6.70;;
80131;SDS011;69442;51.442;10.564;2023-09-30T19:01:24;36.30;;;15.48;;
80131;SDS011;69442;51.442;10.564;2023-09-30T19:03:50;23.08;;;10.38;;
80131;SDS011;69442;51.442;10.564;2023-09-30T19:06:15;19.42;;;8.50;;
80131;SDS011;69442;51.442;10.564;2023-09-30T19:08:40;26.50;;;10.70;;
80131;SDS011;69442;51.442;10.564;2023-09-30T19:11:06;14.30;;;6.60;;
80131;SDS011;69442;51.442;10.564;2023-09-30T19:13:31;10.23;;;5.20;;
80131;SDS011;69442;51.442;10.564;2023-09-30T19:15:56;9.63;;;4.05;;
80131;SDS011;69442;51.442;10.564;2023-09-30T19:18:22;6.28;;;3.40;;
80131;SDS011;69442;51.442;10.564;2023-09-30T19:20:47;4.95;;;3.25;;
80131;SDS011;69442;51.442;10.564;2023-09-30T19:23:13;8.45;;;4.50;;
80131;SDS011;69442;51.442;10.564;2023-09-30T19:25:39;5.50;;;2.28;;
80131;SDS011;69442;51.442;10.564;2023-09-30T19:28:04;3.80;;;2.15;;
80131;SDS011;69442;51.442;10.564;2023-09-30T19:30:30;4.57;;;2.35;;
80131;SDS011;69442;51.442;10.564;2023-09-30T19:32:55;6.32;;;2.55;;
80131;SDS011;69442;51.442;10.564;2023-09-30T19:35:21;4.55;;;2.10;;
80131;SDS011;69442;51.442;10.564;2023-09-30T19:37:47;6.82;;;2.30;;
80131;SDS011;69442;51.442;10.564;2023-09-30T19:40:13;4.82;;;2.15;;
80131;SDS011;69442;51.442;10.564;2023-09-30T19:42:39;4.82;;;2.50;;
80131;SDS011;69442;51.442;10.564;2023-09-30T19:45:05;4.88;;;2.60;;
80131;SDS011;69442;51.442;10.564;2023-09-30T19:47:31;3.38;;;2.38;;
80131;SDS011;69442;51.442;10.564;2023-09-30T19:49:56;10.85;;;5.53;;
80131;SDS011;69442;51.442;10.564;2023-09-30T19:52:22;8.48;;;4.90;;
80131;SDS011;69442;51.442;10.564;2023-09-30T19:54:53;9.50;;;5.40;;
80131;SDS011;69442;51.442;10.564;2023-09-30T19:57:19;8.77;;;4.85;;
80131;SDS011;69442;51.442;10.564;2023-09-30T19:59:44;5.78;;;3.45;;
80131;SDS011;69442;51.442;10.564;2023-09-30T20:02:11;8.25;;;3.58;;
80131;SDS011;69442;51.442;10.564;2023-09-30T20:04:37;8.20;;;4.47;;
80131;SDS011;69442;51.442;10.564;2023-09-30T20:07:02;6.55;;;4.80;;
80131;SDS011;69442;51.442;10.564;2023-09-30T20:09:28;5.85;;;3.20;;
80131;SDS011;69442;51.442;10.564;2023-09-30T20:11:54;9.70;;;5.57;;
80131;SDS011;69442;51.442;10.564;2023-09-30T20:14:23;7.70;;;5.10;;
80131;SDS011;69442;51.442;10.564;2023-09-30T20:16:48;11.65;;;8.75;;
80131;SDS011;69442;51.442;10.564;2023-09-30T20:19:14;5.45;;;3.67;;
80131;SDS011;69442;51.442;10.564;2023-09-30T20:21:40;7.32;;;4.40;;
80131;SDS011;69442;51.442;10.564;2023-09-30T20:24:05;7.22;;;4.78;;
80131;SDS011;69442;51.442;10.564;2023-09-30T20:26:32;8.75;;;4.90;;
80131;SDS011;69442;51.442;10.564;2023-09-30T20:28:59;6.43;;;4.20;;
80131;SDS011;69442;51.442;10.564;2023-09-30T20:31:24;5.65;;;3.35;;
80131;SDS011;69442;51.442;10.564;2023-09-30T20:33:50;7.43;;;5.35;;
80131;SDS011;69442;51.442;10.564;2023-09-30T20:36:15;7.30;;;5.03;;
80131;SDS011;69442;51.442;10.564;2023-09-30T20:38:41;7.10;;;4.80;;
80131;SDS011;69442;51.442;10.564;2023-09-30T20:41:06;5.22;;;3.65;;
80131;SDS011;69442;51.442;10.564;2023-09-30T20:43:32;6.03;;;3.65;;
80131;SDS011;69442;51.442;10.564;2023-09-30T20:46:01;4.65;;;2.95;;
80131;SDS011;69442;51.442;10.564;2023-09-30T20:48:28;5.85;;;3.45;;
80131;SDS011;69442;51.442;10.564;2023-09-30T20:50:54;6.50;;;4.07;;
80131;SDS011;69442;51.442;10.564;2023-09-30T20:53:19;9.95;;;5.70;;
80131;SDS011;69442;51.442;10.564;2023-09-30T20:55:44;6.63;;;3.28;;
80131;SDS011;69442;51.442;10.564;2023-09-30T20:58:10;3.83;;;2.80;;
80131;SDS011;69442;51.442;10.564;2023-09-30T21:00:35;5.05;;;2.53;;
80131;SDS011;69442;51.442;10.564;2023-09-30T21:03:01;6.50;;;3.42;;
80131;SDS011;69442;51.442;10.564;2023-09-30T21:05:27;6.97;;;4.63;;
80131;SDS011;69442;51.442;10.564;2023-09-30T21:07:52;8.90;;;5.38;;
80131;SDS011;69442;51.442;10.564;2023-09-30T21:10:18;12.02;;;5.93;;
80131;SDS011;69442;51.442;10.564;2023-09-30T21:12:43;12.93;;;5.97;;
80131;SDS011;69442;51.442;10.564;2023-09-30T21:15:09;7.18;;;3.03;;
80131;SDS011;69442;51.442;10.564;2023-09-30T21:17:34;12.15;;;5.35;;
80131;SDS011;69442;51.442;10.564;2023-09-30T21:19:59;8.98;;;4.55;;
80131;SDS011;69442;51.442;10.564;2023-09-30T21:22:25;8.57;;;5.32;;
80131;SDS011;69442;51.442;10.564;2023-09-30T21:24:50;11.18;;;4.75;;
80131;SDS011;69442;51.442;10.564;2023-09-30T21:27:16;8.10;;;3.63;;
80131;SDS011;69442;51.442;10.564;2023-09-30T21:29:41;5.82;;;3.50;;
80131;SDS011;69442;51.442;10.564;2023-09-30T21:32:06;5.55;;;3.28;;
80131;SDS011;69442;51.442;10.564;2023-09-30T21:34:32;4.80;;;3.00;;
80131;SDS011;69442;51.442;10.564;2023-09-30T21:36:57;5.45;;;3.30;;
80131;SDS011;69442;51.442;10.564;2023-09-30T21:39:23;5.43;;;3.50;;
80131;SDS011;69442;51.442;10.564;2023-09-30T21:41:48;8.30;;;3.25;;
80131;SDS011;69442;51.442;10.564;2023-09-30T21:44:13;6.55;;;3.30;;
80131;SDS011;69442;51.442;10.564;2023-09-30T21:46:39;6.10;;;3.20;;
80131;SDS011;69442;51.442;10.564;2023-09-30T21:49:04;5.68;;;3.22;;
80131;SDS011;69442;51.442;10.564;2023-09-30T21:51:30;6.90;;;3.85;;
80131;SDS011;69442;51.442;10.564;2023-09-30T21:53:55;5.57;;;2.80;;
80131;SDS011;69442;51.442;10.564;2023-09-30T21:56:20;6.57;;;3.83;;
80131;SDS011;69442;51.442;10.564;2023-09-30T21:58:46;6.28;;;3.47;;
80131;SDS011;69442;51.442;10.564;2023-09-30T22:01:13;6.35;;;4.25;;
80131;SDS011;69442;51.442;10.564;2023-09-30T22:03:42;7.90;;;4.93;;
80131;SDS011;69442;51.442;10.564;2023-09-30T22:06:08;4.57;;;3.10;;
80131;SDS011;69442;51.442;10.564;2023-09-30T22:08:33;6.38;;;4.05;;
80131;SDS011;69442;51.442;10.564;2023-09-30T22:10:58;5.22;;;3.10;;
80131;SDS011;69442;51.442;10.564;2023-09-30T22:13:25;4.90;;;3.30;;
80131;SDS011;69442;51.442;10.564;2023-09-30T22:15:50;5.22;;;2.78;;
80131;SDS011;69442;51.442;10.564;2023-09-30T22:18:17;4.05;;;2.55;;
80131;SDS011;69442;51.442;10.564;2023-09-30T22:20:44;3.40;;;2.47;;
80131;SDS011;69442;51.442;10.564;2023-09-30T22:23:11;5.20;;;2.28;;
80131;SDS011;69442;51.442;10.564;2023-09-30T22:25:36;2.67;;;1.85;;
80131;SDS011;69442;51.442;10.564;2023-09-30T22:28:03;2.67;;;1.83;;
80131;SDS011;69442;51.442;10.564;2023-09-30T22:30:30;4.78;;;2.78;;
80131;SDS011;69442;51.442;10.564;2023-09-30T22:32:56;6.65;;;3.33;;
80131;SDS011;69442;51.442;10.564;2023-09-30T22:35:22;5.35;;;2.88;;
80131;SDS011;69442;51.442;10.564;2023-09-30T22:37:48;2.65;;;2.10;;
80131;SDS011;69442;51.442;10.564;2023-09-30T22:40:14;3.10;;;2.30;;
80131;SDS011;69442;51.442;10.564;2023-09-30T22:42:40;6.88;;;4.20;;
80131;SDS011;69442;51.442;10.564;2023-09-30T22:45:06;6.63;;;3.80;;
80131;SDS011;69442;51.442;10.564;2023-09-30T22:47:46;3.83;;;2.45;;
80131;SDS011;69442;51.442;10.564;2023-09-30T22:50:13;4.78;;;2.53;;
80131;SDS011;69442;51.442;10.564;2023-09-30T22:52:41;2.75;;;1.80;;
80131;SDS011;69442;51.442;10.564;2023-09-30T22:55:14;3.88;;;2.03;;
80131;SDS011;69442;51.442;10.564;2023-09-30T22:57:42;3.15;;;2.13;;
80131;SDS011;69442;51.442;10.564;2023-09-30T23:00:09;3.10;;;1.83;;
80131;SDS011;69442;51.442;10.564;2023-09-30T23:02:36;4.85;;;2.33;;
80131;SDS011;69442;51.442;10.564;2023-09-30T23:05:03;3.90;;;1.90;;
80131;SDS011;69442;51.442;10.564;2023-09-30T23:07:30;3.08;;;2.10;;
80131;SDS011;69442;51.442;10.564;2023-09-30T23:09:55;3.92;;;2.10;;
80131;SDS011;69442;51.442;10.564;2023-09-30T23:12:22;2.40;;;1.73;;
80131;SDS011;69442;51.442;10.564;2023-09-30T23:14:48;4.13;;;1.98;;
80131;SDS011;69442;51.442;10.564;2023-09-30T23:17:13;3.20;;;1.50;;
80131;SDS011;69442;51.442;10.564;2023-09-30T23:19:39;3.53;;;2.08;;
80131;SDS011;69442;51.442;10.564;2023-09-30T23:22:05;3.40;;;1.42;;
80131;SDS011;69442;51.442;10.564;2023-09-30T23:24:38;3.42;;;1.85;;
80131;SDS011;69442;51.442;10.564;2023-09-30T23:27:03;3.03;;;1.70;;
80131;SDS011;69442;51.442;10.564;2023-09-30T23:29:33;4.82;;;1.30;;
80131;SDS011;69442;51.442;10.564;2023-09-30T23:32:02;3.67;;;1.15;;
80131;SDS011;69442;51.442;10.564;2023-09-30T23:34:30;2.42;;;1.33;;
80131;SDS011;69442;51.442;10.564;2023-09-30T23:36:57;2.97;;;1.60;;
80131;SDS011;69442;51.442;10.564;2023-09-30T23:39:24;2.47;;;1.50;;
80131;SDS011;69442;51.442;10.564;2023-09-30T23:41:51;3.90;;;1.52;;
80131;SDS011;69442;51.442;10.564;2023-09-30T23:44:17;2.72;;;1.50;;
80131;SDS011;69442;51.442;10.564;2023-09-30T23:46:43;3.72;;;1.50;;